Macon, Nebraska
Current Conditions -  °F | °C
As of 1:15 PM on Friday 21 Nov 2014 (Local Time) from KHDE Reporting Station
Scattered Clouds Scattered Clouds  
Wind Chill: 39°   Ceiling: Unl
Heat Index: 44°   Visibility: 10mi
Dew Point: 27°   Wind: 9mph
Humidity: 50%   Direction: 200°SSW
Pressure: 30"   Gusts: NA
Location:  40.1734°N, 98.8989°W
Report Text: KHDE 211915Z AUTO 20008KT 10SM SCT100 SCT120 07/M03 A3000 RMK AO2 T00671030
Loading
Personal Weather Stations






























Interactive Weather Map New forecast layout! Learn more

10-Day Weather Forecast

Advertisements
Track Severe Weather on mobile